Impacts METAR Board
IDs:

KLHB - Hearne Muni, TX, US

Updated at: 0900 UTC 26 May 2019
Potential Impact None Slight Moderate High
Time 25/21Z 25/22Z 25/23Z 26/00Z 26/01Z 26/02Z 26/03Z 26/04Z 26/05Z 26/06Z 26/07Z 26/08Z 26/09Z
Temp88 88 89 87 84 81 79 78 77 75 74 74 74
Dewpt73 71 70 67 68 68 68 70 71 72 73 73 73
Altim30.01 30.00 30.00 29.98 29.99 30.00 30.01 30.02 30.03 30.03 30.04 30.03 30.04
VIS10 10 10 10 10 10 10 10 10 10 10 10 10
CIG50 -- -- -- -- -- -- -- -- -- 13 11 19
CoverBKNSCTSCTCLRCLRCLRCLRCLRCLRCLRBKNOVCBKN
FltCatVFRVFRVFRVFRVFRVFRVFRVFRVFRVFRMVFRMVFRMVFR
WX--------------------------
WDir110130130130130140130140140140140150150
WSpd8 9 11 7 8 5 5 9 6 8 5 7 8
WGst-- 15 15 -- -- -- -- 14 -- -- -- -- --
Raw hourly METARs
KLHB 252055Z AUTO 11008KT 10SM BKN050 BKN065 BKN075 31/23 A3001 RMK AO2 T03110225
KLHB 252155Z AUTO 13009G15KT 10SM SCT055 31/22 A3000 RMK AO2 T03090218
KLHB 252255Z AUTO 13011G15KT 10SM SCT060 31/21 A3000 RMK AO2 T03140213
KLHB 252355Z AUTO 13007KT 10SM CLR 31/20 A2998 RMK AO2 T03070196 10325 20302
KLHB 260055Z AUTO 13008KT 10SM CLR 29/20 A2999 RMK AO2 T02900202
KLHB 260155Z AUTO 14005KT 10SM CLR 27/20 A3000 RMK AO2 T02710201
KLHB 260255Z AUTO 13005KT 10SM CLR 26/20 A3001 RMK AO2 T02590202
KLHB 260355Z AUTO 14009G14KT 10SM CLR 26/21 A3002 RMK AO2 T02570211
KLHB 260455Z AUTO 14006KT 10SM CLR 25/22 A3003 RMK AO2 T02490218
KLHB 260555Z AUTO 14008KT 10SM CLR 24/22 A3003 RMK AO2 T02400220 10307 20240 403250227
KLHB 260655Z AUTO 14005KT 10SM BKN013 24/23 A3004 RMK AO2 T02350225
KLHB 260755Z AUTO 15007KT 10SM BKN011 BKN019 OVC026 24/23 A3003 RMK AO2 T02350228
KLHB 260855Z AUTO 15008KT 10SM SCT011 BKN019 23/23 A3004 RMK AO2 T02330230